sensor_id;sensor_type;location;lat;lon;timestamp;P1;durP1;ratioP1;P2;durP2;ratioP2
5026;SDS011;2532;52.480;13.354;2024-03-02T00:00:51;79.23;;;43.30;;
5026;SDS011;2532;52.480;13.354;2024-03-02T00:03:19;80.37;;;43.47;;
5026;SDS011;2532;52.480;13.354;2024-03-02T00:05:48;79.57;;;42.33;;
5026;SDS011;2532;52.480;13.354;2024-03-02T00:08:18;72.23;;;39.30;;
5026;SDS011;2532;52.480;13.354;2024-03-02T00:10:50;72.13;;;40.50;;
5026;SDS011;2532;52.480;13.354;2024-03-02T00:13:18;70.30;;;40.83;;
5026;SDS011;2532;52.480;13.354;2024-03-02T00:15:48;73.53;;;41.00;;
5026;SDS011;2532;52.480;13.354;2024-03-02T00:18:20;70.27;;;40.37;;
5026;SDS011;2532;52.480;13.354;2024-03-02T00:20:52;65.63;;;39.30;;
5026;SDS011;2532;52.480;13.354;2024-03-02T00:23:20;73.93;;;41.73;;
5026;SDS011;2532;52.480;13.354;2024-03-02T00:25:48;66.60;;;40.60;;
5026;SDS011;2532;52.480;13.354;2024-03-02T00:28:19;68.23;;;40.33;;
5026;SDS011;2532;52.480;13.354;2024-03-02T00:30:51;68.83;;;40.33;;
5026;SDS011;2532;52.480;13.354;2024-03-02T00:33:23;65.90;;;39.87;;
5026;SDS011;2532;52.480;13.354;2024-03-02T00:35:54;75.57;;;42.77;;
5026;SDS011;2532;52.480;13.354;2024-03-02T00:38:21;68.10;;;39.67;;
5026;SDS011;2532;52.480;13.354;2024-03-02T00:40:49;72.93;;;42.17;;
5026;SDS011;2532;52.480;13.354;2024-03-02T00:46:10;72.57;;;41.90;;
5026;SDS011;2532;52.480;13.354;2024-03-02T00:48:39;72.10;;;41.50;;
5026;SDS011;2532;52.480;13.354;2024-03-02T00:51:12;70.67;;;42.17;;
5026;SDS011;2532;52.480;13.354;2024-03-02T00:53:39;67.60;;;40.37;;
5026;SDS011;2532;52.480;13.354;2024-03-02T00:56:07;68.43;;;41.20;;
5026;SDS011;2532;52.480;13.354;2024-03-02T00:58:36;74.73;;;40.63;;
5026;SDS011;2532;52.480;13.354;2024-03-02T01:01:03;70.87;;;40.40;;
5026;SDS011;2532;52.480;13.354;2024-03-02T01:03:33;69.23;;;41.07;;
5026;SDS011;2532;52.480;13.354;2024-03-02T01:06:00;75.03;;;43.07;;
5026;SDS011;2532;52.480;13.354;2024-03-02T01:08:27;76.30;;;41.67;;
5026;SDS011;2532;52.480;13.354;2024-03-02T01:10:54;66.87;;;39.97;;
5026;SDS011;2532;52.480;13.354;2024-03-02T01:13:21;72.27;;;40.00;;
5026;SDS011;2532;52.480;13.354;2024-03-02T01:15:49;71.50;;;41.60;;
5026;SDS011;2532;52.480;13.354;2024-03-02T01:18:16;80.17;;;41.50;;
5026;SDS011;2532;52.480;13.354;2024-03-02T01:20:44;74.43;;;41.27;;
5026;SDS011;2532;52.480;13.354;2024-03-02T01:23:11;74.40;;;42.07;;
5026;SDS011;2532;52.480;13.354;2024-03-02T01:25:38;72.80;;;40.93;;
5026;SDS011;2532;52.480;13.354;2024-03-02T01:28:05;72.47;;;43.30;;
5026;SDS011;2532;52.480;13.354;2024-03-02T01:30:32;78.70;;;43.67;;
5026;SDS011;2532;52.480;13.354;2024-03-02T01:33:00;72.93;;;41.57;;
5026;SDS011;2532;52.480;13.354;2024-03-02T01:35:27;72.87;;;44.10;;
5026;SDS011;2532;52.480;13.354;2024-03-02T01:37:55;76.40;;;43.03;;
5026;SDS011;2532;52.480;13.354;2024-03-02T01:40:22;68.87;;;42.23;;
5026;SDS011;2532;52.480;13.354;2024-03-02T01:42:51;72.63;;;41.70;;
5026;SDS011;2532;52.480;13.354;2024-03-02T01:45:18;68.63;;;42.50;;
5026;SDS011;2532;52.480;13.354;2024-03-02T01:47:46;79.67;;;43.43;;
5026;SDS011;2532;52.480;13.354;2024-03-02T01:50:13;80.87;;;44.57;;
5026;SDS011;2532;52.480;13.354;2024-03-02T01:52:40;71.03;;;42.40;;
5026;SDS011;2532;52.480;13.354;2024-03-02T01:55:10;73.67;;;43.87;;
5026;SDS011;2532;52.480;13.354;2024-03-02T01:57:37;87.43;;;43.90;;
5026;SDS011;2532;52.480;13.354;2024-03-02T02:00:05;75.90;;;45.47;;
5026;SDS011;2532;52.480;13.354;2024-03-02T02:02:35;80.87;;;43.87;;
5026;SDS011;2532;52.480;13.354;2024-03-02T02:05:02;79.80;;;45.87;;
5026;SDS011;2532;52.480;13.354;2024-03-02T02:07:29;74.67;;;44.40;;
5026;SDS011;2532;52.480;13.354;2024-03-02T02:09:56;75.03;;;45.33;;
5026;SDS011;2532;52.480;13.354;2024-03-02T02:12:25;76.93;;;45.87;;
5026;SDS011;2532;52.480;13.354;2024-03-02T02:14:52;78.87;;;46.67;;
5026;SDS011;2532;52.480;13.354;2024-03-02T02:17:19;80.10;;;46.40;;
5026;SDS011;2532;52.480;13.354;2024-03-02T02:19:46;79.53;;;44.97;;
5026;SDS011;2532;52.480;13.354;2024-03-02T02:22:17;75.80;;;45.17;;
5026;SDS011;2532;52.480;13.354;2024-03-02T02:24:44;82.00;;;44.40;;
5026;SDS011;2532;52.480;13.354;2024-03-02T02:27:11;82.70;;;45.63;;
5026;SDS011;2532;52.480;13.354;2024-03-02T02:29:40;88.17;;;45.67;;
5026;SDS011;2532;52.480;13.354;2024-03-02T02:32:07;82.20;;;45.50;;
5026;SDS011;2532;52.480;13.354;2024-03-02T02:34:34;89.47;;;46.10;;
5026;SDS011;2532;52.480;13.354;2024-03-02T02:37:01;78.90;;;46.67;;
5026;SDS011;2532;52.480;13.354;2024-03-02T02:39:29;83.10;;;48.00;;
5026;SDS011;2532;52.480;13.354;2024-03-02T02:41:56;80.53;;;46.83;;
5026;SDS011;2532;52.480;13.354;2024-03-02T02:44:23;84.23;;;45.07;;
5026;SDS011;2532;52.480;13.354;2024-03-02T02:46:50;84.57;;;47.00;;
5026;SDS011;2532;52.480;13.354;2024-03-02T02:49:17;81.00;;;46.40;;
5026;SDS011;2532;52.480;13.354;2024-03-02T02:51:44;80.00;;;44.80;;
5026;SDS011;2532;52.480;13.354;2024-03-02T02:54:10;74.90;;;42.87;;
5026;SDS011;2532;52.480;13.354;2024-03-02T02:56:39;76.47;;;46.67;;
5026;SDS011;2532;52.480;13.354;2024-03-02T02:59:06;83.93;;;44.47;;
5026;SDS011;2532;52.480;13.354;2024-03-02T03:01:32;82.83;;;46.40;;
5026;SDS011;2532;52.480;13.354;2024-03-02T03:03:59;78.43;;;44.97;;
5026;SDS011;2532;52.480;13.354;2024-03-02T03:06:26;79.63;;;43.43;;
5026;SDS011;2532;52.480;13.354;2024-03-02T03:08:53;72.03;;;43.40;;
5026;SDS011;2532;52.480;13.354;2024-03-02T03:11:20;79.53;;;44.37;;
5026;SDS011;2532;52.480;13.354;2024-03-02T03:13:51;73.43;;;43.83;;
5026;SDS011;2532;52.480;13.354;2024-03-02T03:16:19;74.57;;;42.67;;
5026;SDS011;2532;52.480;13.354;2024-03-02T03:18:46;73.97;;;43.80;;
5026;SDS011;2532;52.480;13.354;2024-03-02T03:21:15;72.47;;;42.07;;
5026;SDS011;2532;52.480;13.354;2024-03-02T03:23:42;76.00;;;44.43;;
5026;SDS011;2532;52.480;13.354;2024-03-02T03:26:09;66.50;;;40.40;;
5026;SDS011;2532;52.480;13.354;2024-03-02T03:28:35;70.87;;;41.17;;
5026;SDS011;2532;52.480;13.354;2024-03-02T03:31:04;74.23;;;41.73;;
5026;SDS011;2532;52.480;13.354;2024-03-02T03:33:31;77.73;;;43.30;;
5026;SDS011;2532;52.480;13.354;2024-03-02T03:35:58;80.70;;;43.80;;
5026;SDS011;2532;52.480;13.354;2024-03-02T03:38:25;72.43;;;41.97;;
5026;SDS011;2532;52.480;13.354;2024-03-02T03:40:52;76.10;;;44.10;;
5026;SDS011;2532;52.480;13.354;2024-03-02T03:43:19;74.40;;;42.00;;
5026;SDS011;2532;52.480;13.354;2024-03-02T03:45:45;76.70;;;43.07;;
5026;SDS011;2532;52.480;13.354;2024-03-02T03:48:14;73.03;;;42.43;;
5026;SDS011;2532;52.480;13.354;2024-03-02T03:50:41;66.97;;;40.00;;
5026;SDS011;2532;52.480;13.354;2024-03-02T03:53:08;71.20;;;40.80;;
5026;SDS011;2532;52.480;13.354;2024-03-02T03:55:34;71.33;;;44.90;;
5026;SDS011;2532;52.480;13.354;2024-03-02T03:58:02;70.30;;;40.63;;
5026;SDS011;2532;52.480;13.354;2024-03-02T04:00:29;67.43;;;40.73;;
5026;SDS011;2532;52.480;13.354;2024-03-02T04:02:55;67.60;;;40.50;;
5026;SDS011;2532;52.480;13.354;2024-03-02T04:05:24;68.60;;;40.17;;
5026;SDS011;2532;52.480;13.354;2024-03-02T04:07:51;77.20;;;40.37;;
5026;SDS011;2532;52.480;13.354;2024-03-02T04:10:17;70.27;;;41.80;;
5026;SDS011;2532;52.480;13.354;2024-03-02T04:12:46;71.80;;;41.43;;
5026;SDS011;2532;52.480;13.354;2024-03-02T04:15:12;66.33;;;40.07;;
5026;SDS011;2532;52.480;13.354;2024-03-02T04:17:39;64.77;;;38.87;;
5026;SDS011;2532;52.480;13.354;2024-03-02T04:20:06;66.20;;;39.10;;
5026;SDS011;2532;52.480;13.354;2024-03-02T04:22:35;66.70;;;38.67;;
5026;SDS011;2532;52.480;13.354;2024-03-02T04:25:02;55.23;;;37.27;;
5026;SDS011;2532;52.480;13.354;2024-03-02T04:27:32;67.13;;;37.50;;
5026;SDS011;2532;52.480;13.354;2024-03-02T04:29:59;62.97;;;37.80;;
5026;SDS011;2532;52.480;13.354;2024-03-02T04:32:26;61.87;;;35.90;;
5026;SDS011;2532;52.480;13.354;2024-03-02T04:34:53;65.40;;;38.60;;
5026;SDS011;2532;52.480;13.354;2024-03-02T04:37:20;63.97;;;36.87;;
5026;SDS011;2532;52.480;13.354;2024-03-02T04:39:48;65.50;;;37.33;;
5026;SDS011;2532;52.480;13.354;2024-03-02T04:42:15;56.63;;;35.83;;
5026;SDS011;2532;52.480;13.354;2024-03-02T04:44:42;60.40;;;35.50;;
5026;SDS011;2532;52.480;13.354;2024-03-02T04:47:09;60.70;;;36.40;;
5026;SDS011;2532;52.480;13.354;2024-03-02T04:49:36;61.43;;;37.00;;
5026;SDS011;2532;52.480;13.354;2024-03-02T04:52:03;57.00;;;34.13;;
5026;SDS011;2532;52.480;13.354;2024-03-02T04:54:30;64.20;;;36.43;;
5026;SDS011;2532;52.480;13.354;2024-03-02T04:56:58;65.40;;;36.43;;
5026;SDS011;2532;52.480;13.354;2024-03-02T04:59:25;61.13;;;36.50;;
5026;SDS011;2532;52.480;13.354;2024-03-02T05:01:52;64.50;;;36.97;;
5026;SDS011;2532;52.480;13.354;2024-03-02T05:04:19;61.73;;;37.90;;
5026;SDS011;2532;52.480;13.354;2024-03-02T05:06:46;61.57;;;37.90;;
5026;SDS011;2532;52.480;13.354;2024-03-02T05:09:17;63.50;;;38.90;;
5026;SDS011;2532;52.480;13.354;2024-03-02T05:11:44;68.10;;;37.50;;
5026;SDS011;2532;52.480;13.354;2024-03-02T05:14:43;63.23;;;36.37;;
5026;SDS011;2532;52.480;13.354;2024-03-02T05:17:11;62.90;;;36.90;;
5026;SDS011;2532;52.480;13.354;2024-03-02T05:19:38;66.67;;;39.70;;
5026;SDS011;2532;52.480;13.354;2024-03-02T05:22:05;68.73;;;38.70;;
5026;SDS011;2532;52.480;13.354;2024-03-02T05:24:32;59.00;;;37.57;;
5026;SDS011;2532;52.480;13.354;2024-03-02T05:26:59;63.50;;;37.70;;
5026;SDS011;2532;52.480;13.354;2024-03-02T05:29:26;67.67;;;36.80;;
5026;SDS011;2532;52.480;13.354;2024-03-02T05:31:54;60.43;;;37.60;;
5026;SDS011;2532;52.480;13.354;2024-03-02T05:34:21;64.07;;;36.67;;
5026;SDS011;2532;52.480;13.354;2024-03-02T05:36:48;72.97;;;40.30;;
5026;SDS011;2532;52.480;13.354;2024-03-02T05:39:15;62.83;;;37.40;;
5026;SDS011;2532;52.480;13.354;2024-03-02T05:41:41;62.20;;;36.77;;
5026;SDS011;2532;52.480;13.354;2024-03-02T05:44:08;68.33;;;41.13;;
5026;SDS011;2532;52.480;13.354;2024-03-02T05:46:35;67.70;;;39.13;;
5026;SDS011;2532;52.480;13.354;2024-03-02T05:49:03;76.23;;;41.43;;
5026;SDS011;2532;52.480;13.354;2024-03-02T05:51:33;67.67;;;39.80;;
5026;SDS011;2532;52.480;13.354;2024-03-02T05:54:00;70.67;;;40.10;;
5026;SDS011;2532;52.480;13.354;2024-03-02T05:56:27;67.07;;;39.80;;
5026;SDS011;2532;52.480;13.354;2024-03-02T05:58:54;75.57;;;42.63;;
5026;SDS011;2532;52.480;13.354;2024-03-02T06:01:33;73.30;;;42.27;;
5026;SDS011;2532;52.480;13.354;2024-03-02T06:04:00;76.93;;;43.30;;
5026;SDS011;2532;52.480;13.354;2024-03-02T06:06:28;71.23;;;41.40;;
5026;SDS011;2532;52.480;13.354;2024-03-02T06:08:57;73.73;;;43.47;;
5026;SDS011;2532;52.480;13.354;2024-03-02T06:11:24;83.03;;;42.67;;
5026;SDS011;2532;52.480;13.354;2024-03-02T06:13:53;75.83;;;41.60;;
5026;SDS011;2532;52.480;13.354;2024-03-02T06:16:20;83.17;;;43.27;;
5026;SDS011;2532;52.480;13.354;2024-03-02T06:18:47;80.97;;;40.90;;
5026;SDS011;2532;52.480;13.354;2024-03-02T06:21:14;79.63;;;42.47;;
5026;SDS011;2532;52.480;13.354;2024-03-02T06:23:43;78.20;;;42.67;;
5026;SDS011;2532;52.480;13.354;2024-03-02T06:26:09;75.37;;;42.03;;
5026;SDS011;2532;52.480;13.354;2024-03-02T06:28:37;79.67;;;43.47;;
5026;SDS011;2532;52.480;13.354;2024-03-02T06:31:04;80.13;;;44.33;;
5026;SDS011;2532;52.480;13.354;2024-03-02T06:33:31;79.27;;;41.50;;
5026;SDS011;2532;52.480;13.354;2024-03-02T06:35:58;77.23;;;41.07;;
5026;SDS011;2532;52.480;13.354;2024-03-02T06:38:24;75.67;;;41.03;;
5026;SDS011;2532;52.480;13.354;2024-03-02T06:40:53;76.40;;;43.77;;
5026;SDS011;2532;52.480;13.354;2024-03-02T06:43:21;73.67;;;39.70;;
5026;SDS011;2532;52.480;13.354;2024-03-02T06:45:48;80.27;;;42.70;;
5026;SDS011;2532;52.480;13.354;2024-03-02T06:48:15;80.13;;;42.33;;
5026;SDS011;2532;52.480;13.354;2024-03-02T06:50:45;82.80;;;42.33;;
5026;SDS011;2532;52.480;13.354;2024-03-02T06:53:12;74.43;;;42.03;;
5026;SDS011;2532;52.480;13.354;2024-03-02T06:55:42;74.40;;;42.37;;
5026;SDS011;2532;52.480;13.354;2024-03-02T06:58:10;77.60;;;44.03;;
5026;SDS011;2532;52.480;13.354;2024-03-02T07:00:37;80.77;;;42.70;;
5026;SDS011;2532;52.480;13.354;2024-03-02T07:03:04;75.03;;;41.03;;
5026;SDS011;2532;52.480;13.354;2024-03-02T07:05:31;77.03;;;42.37;;
5026;SDS011;2532;52.480;13.354;2024-03-02T07:07:58;73.50;;;41.10;;
5026;SDS011;2532;52.480;13.354;2024-03-02T07:10:26;82.73;;;42.13;;
5026;SDS011;2532;52.480;13.354;2024-03-02T07:12:53;65.90;;;38.10;;
5026;SDS011;2532;52.480;13.354;2024-03-02T07:15:21;78.40;;;41.40;;
5026;SDS011;2532;52.480;13.354;2024-03-02T07:18:08;78.13;;;42.60;;
5026;SDS011;2532;52.480;13.354;2024-03-02T07:20:35;77.50;;;42.20;;
5026;SDS011;2532;52.480;13.354;2024-03-02T07:23:04;79.30;;;44.30;;
5026;SDS011;2532;52.480;13.354;2024-03-02T07:25:31;75.53;;;42.70;;
5026;SDS011;2532;52.480;13.354;2024-03-02T07:27:57;80.87;;;41.90;;
5026;SDS011;2532;52.480;13.354;2024-03-02T07:30:26;82.53;;;41.37;;
5026;SDS011;2532;52.480;13.354;2024-03-02T07:32:53;73.93;;;42.37;;
5026;SDS011;2532;52.480;13.354;2024-03-02T07:35:20;79.40;;;42.90;;
5026;SDS011;2532;52.480;13.354;2024-03-02T07:37:47;77.67;;;43.80;;
5026;SDS011;2532;52.480;13.354;2024-03-02T07:40:14;71.83;;;41.20;;
5026;SDS011;2532;52.480;13.354;2024-03-02T07:42:41;83.20;;;42.60;;
5026;SDS011;2532;52.480;13.354;2024-03-02T07:45:08;76.40;;;42.23;;
5026;SDS011;2532;52.480;13.354;2024-03-02T07:47:37;75.47;;;41.83;;
5026;SDS011;2532;52.480;13.354;2024-03-02T07:50:04;74.70;;;40.10;;
5026;SDS011;2532;52.480;13.354;2024-03-02T07:52:32;82.63;;;41.70;;
5026;SDS011;2532;52.480;13.354;2024-03-02T07:54:59;69.37;;;40.77;;
5026;SDS011;2532;52.480;13.354;2024-03-02T07:57:26;67.83;;;39.27;;
5026;SDS011;2532;52.480;13.354;2024-03-02T07:59:53;74.17;;;39.27;;
5026;SDS011;2532;52.480;13.354;2024-03-02T08:02:20;73.73;;;41.90;;
5026;SDS011;2532;52.480;13.354;2024-03-02T08:04:48;74.73;;;41.50;;
5026;SDS011;2532;52.480;13.354;2024-03-02T08:07:15;70.73;;;40.63;;
5026;SDS011;2532;52.480;13.354;2024-03-02T08:09:42;70.00;;;39.70;;
5026;SDS011;2532;52.480;13.354;2024-03-02T08:12:09;74.10;;;41.40;;
5026;SDS011;2532;52.480;13.354;2024-03-02T08:14:36;65.83;;;40.23;;
5026;SDS011;2532;52.480;13.354;2024-03-02T08:17:03;69.10;;;39.70;;
5026;SDS011;2532;52.480;13.354;2024-03-02T08:19:34;66.40;;;38.40;;
5026;SDS011;2532;52.480;13.354;2024-03-02T08:22:04;73.67;;;40.50;;
5026;SDS011;2532;52.480;13.354;2024-03-02T08:24:31;65.47;;;38.30;;
5026;SDS011;2532;52.480;13.354;2024-03-02T08:26:58;63.70;;;38.13;;
5026;SDS011;2532;52.480;13.354;2024-03-02T08:29:26;62.97;;;36.77;;
5026;SDS011;2532;52.480;13.354;2024-03-02T08:31:52;69.10;;;37.67;;
5026;SDS011;2532;52.480;13.354;2024-03-02T08:34:20;69.30;;;39.80;;
5026;SDS011;2532;52.480;13.354;2024-03-02T08:36:47;71.50;;;41.50;;
5026;SDS011;2532;52.480;13.354;2024-03-02T08:39:15;81.90;;;39.90;;
5026;SDS011;2532;52.480;13.354;2024-03-02T08:41:43;72.97;;;39.20;;
5026;SDS011;2532;52.480;13.354;2024-03-02T08:44:11;74.13;;;40.20;;
5026;SDS011;2532;52.480;13.354;2024-03-02T08:46:38;73.67;;;44.37;;
5026;SDS011;2532;52.480;13.354;2024-03-02T08:49:05;69.47;;;38.93;;
5026;SDS011;2532;52.480;13.354;2024-03-02T08:51:33;70.73;;;41.00;;
5026;SDS011;2532;52.480;13.354;2024-03-02T08:54:00;68.27;;;40.60;;
5026;SDS011;2532;52.480;13.354;2024-03-02T08:56:28;64.73;;;39.40;;
5026;SDS011;2532;52.480;13.354;2024-03-02T08:58:55;63.67;;;39.70;;
5026;SDS011;2532;52.480;13.354;2024-03-02T09:01:24;74.87;;;39.50;;
5026;SDS011;2532;52.480;13.354;2024-03-02T09:03:51;68.33;;;38.93;;
5026;SDS011;2532;52.480;13.354;2024-03-02T09:06:18;67.03;;;39.07;;
5026;SDS011;2532;52.480;13.354;2024-03-02T09:08:48;69.50;;;39.80;;
5026;SDS011;2532;52.480;13.354;2024-03-02T09:11:17;57.70;;;36.40;;
5026;SDS011;2532;52.480;13.354;2024-03-02T09:13:45;74.60;;;39.00;;
5026;SDS011;2532;52.480;13.354;2024-03-02T09:16:12;66.80;;;39.87;;
5026;SDS011;2532;52.480;13.354;2024-03-02T09:18:39;65.03;;;38.17;;
5026;SDS011;2532;52.480;13.354;2024-03-02T09:21:06;64.00;;;38.60;;
5026;SDS011;2532;52.480;13.354;2024-03-02T09:23:33;65.90;;;36.60;;
5026;SDS011;2532;52.480;13.354;2024-03-02T09:26:00;62.87;;;38.60;;
5026;SDS011;2532;52.480;13.354;2024-03-02T09:28:28;67.03;;;38.43;;
5026;SDS011;2532;52.480;13.354;2024-03-02T09:30:56;68.00;;;38.60;;
5026;SDS011;2532;52.480;13.354;2024-03-02T09:33:23;68.07;;;37.97;;
5026;SDS011;2532;52.480;13.354;2024-03-02T09:35:50;62.47;;;36.83;;
5026;SDS011;2532;52.480;13.354;2024-03-02T09:38:17;62.03;;;36.40;;
5026;SDS011;2532;52.480;13.354;2024-03-02T09:40:44;61.50;;;37.80;;
5026;SDS011;2532;52.480;13.354;2024-03-02T09:43:11;59.33;;;36.23;;
5026;SDS011;2532;52.480;13.354;2024-03-02T09:45:39;68.93;;;36.80;;
5026;SDS011;2532;52.480;13.354;2024-03-02T09:48:08;64.60;;;36.90;;
5026;SDS011;2532;52.480;13.354;2024-03-02T09:50:35;64.60;;;35.37;;
5026;SDS011;2532;52.480;13.354;2024-03-02T09:53:02;54.50;;;34.53;;
5026;SDS011;2532;52.480;13.354;2024-03-02T09:55:30;62.27;;;34.83;;
5026;SDS011;2532;52.480;13.354;2024-03-02T09:57:57;65.00;;;34.23;;
5026;SDS011;2532;52.480;13.354;2024-03-02T10:00:23;55.20;;;34.70;;
5026;SDS011;2532;52.480;13.354;2024-03-02T10:02:51;55.63;;;34.40;;
5026;SDS011;2532;52.480;13.354;2024-03-02T10:05:26;58.77;;;34.20;;
5026;SDS011;2532;52.480;13.354;2024-03-02T10:08:00;52.70;;;32.00;;
5026;SDS011;2532;52.480;13.354;2024-03-02T10:10:34;53.57;;;32.30;;
5026;SDS011;2532;52.480;13.354;2024-03-02T10:13:05;55.13;;;32.93;;
5026;SDS011;2532;52.480;13.354;2024-03-02T10:15:33;56.77;;;32.20;;
5026;SDS011;2532;52.480;13.354;2024-03-02T10:18:01;51.77;;;32.03;;
5026;SDS011;2532;52.480;13.354;2024-03-02T10:20:29;49.67;;;28.93;;
5026;SDS011;2532;52.480;13.354;2024-03-02T10:23:00;46.30;;;29.20;;
5026;SDS011;2532;52.480;13.354;2024-03-02T10:25:36;58.30;;;33.00;;
5026;SDS011;2532;52.480;13.354;2024-03-02T10:28:04;51.23;;;31.33;;
5026;SDS011;2532;52.480;13.354;2024-03-02T10:30:31;50.07;;;30.00;;
5026;SDS011;2532;52.480;13.354;2024-03-02T10:32:58;54.87;;;30.50;;
5026;SDS011;2532;52.480;13.354;2024-03-02T10:35:26;48.13;;;28.93;;
5026;SDS011;2532;52.480;13.354;2024-03-02T10:37:55;44.67;;;28.37;;
5026;SDS011;2532;52.480;13.354;2024-03-02T10:40:22;45.67;;;26.53;;
5026;SDS011;2532;52.480;13.354;2024-03-02T10:42:49;46.10;;;27.20;;
5026;SDS011;2532;52.480;13.354;2024-03-02T10:45:19;46.80;;;27.23;;
5026;SDS011;2532;52.480;13.354;2024-03-02T10:47:47;48.10;;;27.93;;
5026;SDS011;2532;52.480;13.354;2024-03-02T10:50:16;43.33;;;26.30;;
5026;SDS011;2532;52.480;13.354;2024-03-02T10:52:43;44.87;;;26.53;;
5026;SDS011;2532;52.480;13.354;2024-03-02T10:55:12;46.50;;;27.20;;
5026;SDS011;2532;52.480;13.354;2024-03-02T10:57:45;45.67;;;28.27;;
5026;SDS011;2532;52.480;13.354;2024-03-02T11:00:18;39.70;;;25.73;;
5026;SDS011;2532;52.480;13.354;2024-03-02T11:02:50;39.60;;;26.43;;
5026;SDS011;2532;52.480;13.354;2024-03-02T11:05:21;43.73;;;27.57;;
5026;SDS011;2532;52.480;13.354;2024-03-02T11:07:53;43.20;;;26.27;;
5026;SDS011;2532;52.480;13.354;2024-03-02T11:10:27;39.90;;;27.10;;
5026;SDS011;2532;52.480;13.354;2024-03-02T11:13:00;40.77;;;25.90;;
5026;SDS011;2532;52.480;13.354;2024-03-02T11:15:31;41.20;;;26.37;;
5026;SDS011;2532;52.480;13.354;2024-03-02T11:18:00;40.10;;;24.87;;
5026;SDS011;2532;52.480;13.354;2024-03-02T11:20:30;38.43;;;23.70;;
5026;SDS011;2532;52.480;13.354;2024-03-02T11:22:57;39.90;;;25.17;;
5026;SDS011;2532;52.480;13.354;2024-03-02T11:25:32;39.97;;;25.40;;
5026;SDS011;2532;52.480;13.354;2024-03-02T11:28:00;40.10;;;25.30;;
5026;SDS011;2532;52.480;13.354;2024-03-02T11:33:22;42.57;;;26.10;;
5026;SDS011;2532;52.480;13.354;2024-03-02T11:35:52;37.70;;;24.87;;
5026;SDS011;2532;52.480;13.354;2024-03-02T11:38:19;37.60;;;22.87;;
5026;SDS011;2532;52.480;13.354;2024-03-02T11:40:48;40.20;;;25.27;;
5026;SDS011;2532;52.480;13.354;2024-03-02T11:43:15;36.93;;;24.33;;
5026;SDS011;2532;52.480;13.354;2024-03-02T11:45:43;45.10;;;25.10;;
5026;SDS011;2532;52.480;13.354;2024-03-02T11:48:11;36.10;;;24.50;;
5026;SDS011;2532;52.480;13.354;2024-03-02T11:50:40;36.80;;;24.53;;
5026;SDS011;2532;52.480;13.354;2024-03-02T11:53:09;36.77;;;23.90;;
5026;SDS011;2532;52.480;13.354;2024-03-02T11:55:38;38.83;;;25.43;;
5026;SDS011;2532;52.480;13.354;2024-03-02T11:58:07;42.60;;;24.90;;
5026;SDS011;2532;52.480;13.354;2024-03-02T12:00:35;38.13;;;24.60;;
5026;SDS011;2532;52.480;13.354;2024-03-02T12:03:02;38.43;;;25.37;;
5026;SDS011;2532;52.480;13.354;2024-03-02T12:05:32;42.47;;;26.37;;
5026;SDS011;2532;52.480;13.354;2024-03-02T12:08:00;39.60;;;25.13;;
5026;SDS011;2532;52.480;13.354;2024-03-02T12:10:29;42.37;;;26.60;;
5026;SDS011;2532;52.480;13.354;2024-03-02T12:12:56;42.23;;;25.97;;
5026;SDS011;2532;52.480;13.354;2024-03-02T12:15:26;38.30;;;25.97;;
5026;SDS011;2532;52.480;13.354;2024-03-02T12:17:54;36.23;;;24.00;;
5026;SDS011;2532;52.480;13.354;2024-03-02T12:20:22;36.70;;;24.27;;
5026;SDS011;2532;52.480;13.354;2024-03-02T12:22:49;53.60;;;27.00;;
5026;SDS011;2532;52.480;13.354;2024-03-02T12:25:18;40.43;;;26.40;;
5026;SDS011;2532;52.480;13.354;2024-03-02T12:27:49;37.90;;;25.00;;
5026;SDS011;2532;52.480;13.354;2024-03-02T12:30:17;42.20;;;26.00;;
5026;SDS011;2532;52.480;13.354;2024-03-02T12:32:46;60.63;;;26.17;;
5026;SDS011;2532;52.480;13.354;2024-03-02T12:35:14;40.13;;;26.17;;
5026;SDS011;2532;52.480;13.354;2024-03-02T12:37:43;41.90;;;26.17;;
5026;SDS011;2532;52.480;13.354;2024-03-02T12:40:11;43.00;;;26.23;;
5026;SDS011;2532;52.480;13.354;2024-03-02T12:42:38;43.50;;;26.70;;
5026;SDS011;2532;52.480;13.354;2024-03-02T12:45:07;43.30;;;25.67;;
5026;SDS011;2532;52.480;13.354;2024-03-02T12:47:34;37.60;;;25.40;;
5026;SDS011;2532;52.480;13.354;2024-03-02T12:50:03;37.10;;;24.57;;
5026;SDS011;2532;52.480;13.354;2024-03-02T12:52:31;38.10;;;23.67;;
5026;SDS011;2532;52.480;13.354;2024-03-02T12:54:59;38.37;;;24.23;;
5026;SDS011;2532;52.480;13.354;2024-03-02T12:57:28;38.53;;;24.50;;
5026;SDS011;2532;52.480;13.354;2024-03-02T12:59:59;45.80;;;25.10;;
5026;SDS011;2532;52.480;13.354;2024-03-02T13:02:27;40.03;;;25.83;;
5026;SDS011;2532;52.480;13.354;2024-03-02T13:04:55;40.57;;;24.90;;
5026;SDS011;2532;52.480;13.354;2024-03-02T13:07:25;40.00;;;23.90;;
5026;SDS011;2532;52.480;13.354;2024-03-02T13:09:52;44.00;;;26.17;;
5026;SDS011;2532;52.480;13.354;2024-03-02T13:12:21;38.70;;;25.40;;
5026;SDS011;2532;52.480;13.354;2024-03-02T13:14:48;39.00;;;22.83;;
5026;SDS011;2532;52.480;13.354;2024-03-02T13:17:17;41.83;;;23.80;;
5026;SDS011;2532;52.480;13.354;2024-03-02T13:19:51;41.73;;;26.37;;
5026;SDS011;2532;52.480;13.354;2024-03-02T13:22:19;37.90;;;23.73;;
5026;SDS011;2532;52.480;13.354;2024-03-02T13:24:47;41.00;;;26.90;;
5026;SDS011;2532;52.480;13.354;2024-03-02T13:27:14;37.60;;;23.87;;
5026;SDS011;2532;52.480;13.354;2024-03-02T13:29:44;35.67;;;24.73;;
5026;SDS011;2532;52.480;13.354;2024-03-02T13:32:11;39.80;;;25.70;;
5026;SDS011;2532;52.480;13.354;2024-03-02T13:34:38;39.03;;;22.33;;
5026;SDS011;2532;52.480;13.354;2024-03-02T13:37:06;31.67;;;21.90;;
5026;SDS011;2532;52.480;13.354;2024-03-02T13:39:33;39.37;;;24.07;;
5026;SDS011;2532;52.480;13.354;2024-03-02T13:42:06;33.83;;;23.53;;
5026;SDS011;2532;52.480;13.354;2024-03-02T13:44:34;36.87;;;24.07;;
5026;SDS011;2532;52.480;13.354;2024-03-02T13:47:01;32.97;;;22.00;;
5026;SDS011;2532;52.480;13.354;2024-03-02T13:49:29;33.63;;;22.00;;
5026;SDS011;2532;52.480;13.354;2024-03-02T13:52:00;36.77;;;22.00;;
5026;SDS011;2532;52.480;13.354;2024-03-02T13:54:36;31.60;;;20.30;;
5026;SDS011;2532;52.480;13.354;2024-03-02T13:57:04;31.20;;;21.87;;
5026;SDS011;2532;52.480;13.354;2024-03-02T13:59:34;40.00;;;22.97;;
5026;SDS011;2532;52.480;13.354;2024-03-02T14:02:01;32.10;;;22.10;;
5026;SDS011;2532;52.480;13.354;2024-03-02T14:04:29;31.37;;;20.40;;
5026;SDS011;2532;52.480;13.354;2024-03-02T14:06:58;30.60;;;20.70;;
5026;SDS011;2532;52.480;13.354;2024-03-02T14:09:25;34.50;;;20.67;;
5026;SDS011;2532;52.480;13.354;2024-03-02T14:11:52;30.57;;;19.30;;
5026;SDS011;2532;52.480;13.354;2024-03-02T14:14:20;24.90;;;17.80;;
5026;SDS011;2532;52.480;13.354;2024-03-02T14:16:48;28.87;;;17.37;;
5026;SDS011;2532;52.480;13.354;2024-03-02T14:19:15;29.27;;;17.93;;
5026;SDS011;2532;52.480;13.354;2024-03-02T14:21:41;31.80;;;18.40;;
5026;SDS011;2532;52.480;13.354;2024-03-02T14:24:08;31.53;;;18.73;;
5026;SDS011;2532;52.480;13.354;2024-03-02T14:26:35;27.80;;;19.00;;
5026;SDS011;2532;52.480;13.354;2024-03-02T14:29:03;26.03;;;17.27;;
5026;SDS011;2532;52.480;13.354;2024-03-02T14:31:31;28.17;;;17.10;;
5026;SDS011;2532;52.480;13.354;2024-03-02T14:33:58;27.63;;;17.10;;
5026;SDS011;2532;52.480;13.354;2024-03-02T14:36:26;26.00;;;18.07;;
5026;SDS011;2532;52.480;13.354;2024-03-02T14:38:54;23.03;;;18.27;;
5026;SDS011;2532;52.480;13.354;2024-03-02T14:41:21;25.30;;;17.00;;
5026;SDS011;2532;52.480;13.354;2024-03-02T14:43:49;26.10;;;17.77;;